CES9659 VCBI-VRMM
Flight info
| Callsign | CES9659 |
|---|---|
| Flight time | 1h 11m |
| Altitude | 24000 |
| Route | LALUM1D TELIG DCT 052301N0770032E DCT HOKEY HOKEY1B |
| Aircraft | B738/M-SDGIJ1LRWY/SB1 |
Departure
| Time | 2026-04-25 17:10 |
|---|---|
| Airport | Bandaranaike International Colombo Airport (VCBI) |
Arrival
| Time | 2026-04-25 18:21 |
|---|---|
| Airport | Velana International Airport (VRMM) |
| Time | Latitude | Longitude | Altitude | Speed | Heading |
|---|---|---|---|---|---|
| 2026-04-25 16:40 | 7.17656 | 79.88369 | 43 ft | 0 kts | 37° |
| 2026-04-25 16:53 | 7.17655 | 79.88368 | 43 ft | 0 kts | 37° |
| 2026-04-25 16:57 | 7.17651 | 79.88365 | 44 ft | 2 kts | 37° |
| 2026-04-25 16:58 | 7.17640 | 79.88357 | 43 ft | 2 kts | 37° |
| 2026-04-25 16:58 | 7.17628 | 79.88348 | 43 ft | 2 kts | 37° |
| 2026-04-25 16:58 | 7.17616 | 79.88339 | 42 ft | 2 kts | 37° |
| 2026-04-25 16:58 | 7.17604 | 79.88329 | 42 ft | 2 kts | 33° |
| 2026-04-25 16:59 | 7.17589 | 79.88326 | 42 ft | 2 kts | 349° |
| 2026-04-25 16:59 | 7.17576 | 79.88332 | 42 ft | 2 kts | 315° |
| 2026-04-25 16:59 | 7.17568 | 79.88345 | 43 ft | 2 kts | 304° |
| 2026-04-25 16:59 | 7.17564 | 79.88350 | 43 ft | 0 kts | 309° |
| 2026-04-25 17:03 | 7.17580 | 79.88329 | 42 ft | 8 kts | 309° |
| 2026-04-25 17:03 | 7.17620 | 79.88271 | 40 ft | 10 kts | 313° |
| 2026-04-25 17:03 | 7.17683 | 79.88271 | 40 ft | 9 kts | 38° |
| 2026-04-25 17:04 | 7.17729 | 79.88308 | 41 ft | 7 kts | 36° |
| 2026-04-25 17:04 | 7.17781 | 79.88349 | 42 ft | 14 kts | 38° |
| 2026-04-25 17:04 | 7.17863 | 79.88412 | 45 ft | 13 kts | 37° |
| 2026-04-25 17:04 | 7.17939 | 79.88471 | 44 ft | 17 kts | 38° |
| 2026-04-25 17:05 | 7.18037 | 79.88546 | 43 ft | 17 kts | 38° |
| 2026-04-25 17:05 | 7.18229 | 79.88696 | 44 ft | 19 kts | 38° |
| 2026-04-25 17:05 | 7.18335 | 79.88779 | 44 ft | 20 kts | 37° |
| 2026-04-25 17:06 | 7.18465 | 79.88879 | 43 ft | 24 kts | 37° |
| 2026-04-25 17:06 | 7.18599 | 79.88984 | 42 ft | 23 kts | 39° |
| 2026-04-25 17:06 | 7.18730 | 79.89085 | 41 ft | 23 kts | 37° |
| 2026-04-25 17:06 | 7.18861 | 79.89187 | 41 ft | 23 kts | 38° |
| 2026-04-25 17:07 | 7.18986 | 79.89283 | 41 ft | 22 kts | 38° |
| 2026-04-25 17:07 | 7.19089 | 79.89363 | 42 ft | 13 kts | 38° |
| 2026-04-25 17:07 | 7.19160 | 79.89416 | 43 ft | 12 kts | 31° |
| 2026-04-25 17:07 | 7.19231 | 79.89396 | 42 ft | 11 kts | 313° |
| 2026-04-25 17:08 | 7.19278 | 79.89329 | 42 ft | 11 kts | 290° |
| 2026-04-25 17:08 | 7.19252 | 79.89262 | 42 ft | 8 kts | 221° |
| 2026-04-25 17:08 | 7.19250 | 79.89260 | 42 ft | 0 kts | 220° |
| 2026-04-25 17:09 | 7.19131 | 79.89168 | 43 ft | 62 kts | 217° |
| 2026-04-25 17:09 | 7.18552 | 79.88720 | 43 ft | 144 kts | 217° |
| 2026-04-25 17:10 | 7.17634 | 79.88020 | 497 ft | 174 kts | 217° |
| 2026-04-25 17:10 | 7.16666 | 79.87274 | 1011 ft | 180 kts | 217° |
| 2026-04-25 17:10 | 7.15669 | 79.86477 | 939 ft | 180 kts | 218° |
| 2026-04-25 17:10 | 7.14746 | 79.85713 | 1071 ft | 156 kts | 219° |
| 2026-04-25 17:11 | 7.13894 | 79.85005 | 1175 ft | 169 kts | 218° |
| 2026-04-25 17:11 | 7.12968 | 79.84265 | 1453 ft | 169 kts | 217° |
| 2026-04-25 17:11 | 7.11929 | 79.83516 | 1474 ft | 192 kts | 212° |
| 2026-04-25 17:11 | 7.10866 | 79.82845 | 2152 ft | 163 kts | 210° |
| 2026-04-25 17:12 | 7.09911 | 79.82235 | 1845 ft | 173 kts | 219° |
| 2026-04-25 17:12 | 7.09033 | 79.81445 | 1941 ft | 164 kts | 221° |
| 2026-04-25 17:12 | 7.08100 | 79.80651 | 2318 ft | 186 kts | 217° |
| 2026-04-25 17:12 | 7.07031 | 79.79824 | 2819 ft | 207 kts | 216° |
| 2026-04-25 17:13 | 7.05828 | 79.78911 | 3404 ft | 227 kts | 216° |
| 2026-04-25 17:13 | 7.05401 | 79.78587 | 3630 ft | 233 kts | 216° |
| 2026-04-25 17:13 | 7.03113 | 79.76842 | 4794 ft | 259 kts | 217° |
| 2026-04-25 17:13 | 7.01646 | 79.75718 | 5479 ft | 275 kts | 217° |
| 2026-04-25 17:14 | 7.00079 | 79.74519 | 6241 ft | 287 kts | 217° |
| 2026-04-25 17:14 | 6.98465 | 79.73285 | 7100 ft | 294 kts | 217° |
| 2026-04-25 17:14 | 6.96825 | 79.72032 | 8031 ft | 297 kts | 217° |
| 2026-04-25 17:14 | 6.95161 | 79.70757 | 8969 ft | 299 kts | 217° |
| 2026-04-25 17:15 | 6.93497 | 79.69478 | 9828 ft | 303 kts | 217° |
| 2026-04-25 17:15 | 6.91779 | 79.68160 | 10609 ft | 311 kts | 217° |
| 2026-04-25 17:15 | 6.90008 | 79.66807 | 11138 ft | 327 kts | 217° |
| 2026-04-25 17:15 | 6.88170 | 79.65391 | 11630 ft | 342 kts | 218° |
| 2026-04-25 17:16 | 6.86403 | 79.63661 | 12091 ft | 357 kts | 230° |
| 2026-04-25 17:16 | 6.84880 | 79.61634 | 12617 ft | 369 kts | 235° |
| 2026-04-25 17:16 | 6.83411 | 79.59491 | 13341 ft | 374 kts | 236° |
| 2026-04-25 17:16 | 6.81878 | 79.57304 | 14075 ft | 379 kts | 234° |
| 2026-04-25 17:17 | 6.80303 | 79.55155 | 14835 ft | 382 kts | 233° |
| 2026-04-25 17:17 | 6.78664 | 79.52997 | 15538 ft | 386 kts | 232° |
| 2026-04-25 17:17 | 6.77003 | 79.50858 | 16238 ft | 390 kts | 232° |
| 2026-04-25 17:17 | 6.75307 | 79.48698 | 16886 ft | 394 kts | 231° |
| 2026-04-25 17:18 | 6.73592 | 79.46527 | 17546 ft | 398 kts | 231° |
| 2026-04-25 17:18 | 6.71834 | 79.44303 | 18198 ft | 402 kts | 231° |
| 2026-04-25 17:18 | 6.70063 | 79.42062 | 18826 ft | 406 kts | 231° |
| 2026-04-25 17:18 | 6.68301 | 79.39827 | 19438 ft | 409 kts | 231° |
| 2026-04-25 17:19 | 6.66524 | 79.37574 | 20035 ft | 413 kts | 231° |
| 2026-04-25 17:19 | 6.64745 | 79.35320 | 20628 ft | 416 kts | 230° |
| 2026-04-25 17:19 | 6.62929 | 79.33018 | 21181 ft | 420 kts | 230° |
| 2026-04-25 17:19 | 6.61098 | 79.30694 | 21729 ft | 424 kts | 230° |
| 2026-04-25 17:20 | 6.59255 | 79.28355 | 22274 ft | 427 kts | 230° |
| 2026-04-25 17:20 | 6.57397 | 79.26000 | 22817 ft | 430 kts | 230° |
| 2026-04-25 17:20 | 6.55525 | 79.23626 | 23349 ft | 433 kts | 230° |
| 2026-04-25 17:20 | 6.53667 | 79.21270 | 23797 ft | 436 kts | 230° |
| 2026-04-25 17:21 | 6.51758 | 79.18851 | 23862 ft | 439 kts | 230° |
| 2026-04-25 17:21 | 6.49860 | 79.16444 | 23863 ft | 436 kts | 230° |
| 2026-04-25 17:21 | 6.47987 | 79.14066 | 23864 ft | 436 kts | 230° |
| 2026-04-25 17:21 | 6.46075 | 79.11640 | 23865 ft | 436 kts | 230° |
| 2026-04-25 17:22 | 6.44210 | 79.09275 | 23864 ft | 435 kts | 230° |
| 2026-04-25 17:22 | 6.43579 | 79.08476 | 23864 ft | 435 kts | 230° |
| 2026-04-25 17:22 | 6.40439 | 79.04485 | 23864 ft | 435 kts | 230° |
| 2026-04-25 17:22 | 6.38554 | 79.02095 | 23864 ft | 434 kts | 230° |
| 2026-04-25 17:23 | 6.36673 | 78.99715 | 23868 ft | 435 kts | 230° |
| 2026-04-25 17:23 | 6.34796 | 78.97337 | 23870 ft | 435 kts | 230° |
| 2026-04-25 17:23 | 6.32903 | 78.94935 | 23874 ft | 435 kts | 230° |
| 2026-04-25 17:23 | 6.31009 | 78.92525 | 23876 ft | 435 kts | 231° |
| 2026-04-25 17:24 | 6.29242 | 78.90080 | 23876 ft | 436 kts | 235° |
| 2026-04-25 17:24 | 6.27663 | 78.87468 | 23876 ft | 437 kts | 239° |
| 2026-04-25 17:24 | 6.26254 | 78.84756 | 23876 ft | 437 kts | 242° |
| 2026-04-25 17:24 | 6.24938 | 78.81992 | 23879 ft | 436 kts | 243° |
| 2026-04-25 17:25 | 6.23663 | 78.79209 | 23878 ft | 438 kts | 244° |
| 2026-04-25 17:25 | 6.22390 | 78.76392 | 23879 ft | 437 kts | 244° |
| 2026-04-25 17:25 | 6.21146 | 78.73628 | 23877 ft | 437 kts | 244° |
| 2026-04-25 17:25 | 6.19884 | 78.70834 | 23875 ft | 436 kts | 244° |
| 2026-04-25 17:26 | 6.18627 | 78.68063 | 23871 ft | 436 kts | 244° |
| 2026-04-25 17:26 | 6.17350 | 78.65264 | 23868 ft | 436 kts | 244° |
| 2026-04-25 17:26 | 6.16086 | 78.62503 | 23865 ft | 436 kts | 244° |
| 2026-04-25 17:26 | 6.14797 | 78.59746 | 23863 ft | 436 kts | 243° |
| 2026-04-25 17:27 | 6.13372 | 78.57051 | 23863 ft | 435 kts | 237° |
| 2026-04-25 17:27 | 6.11689 | 78.54512 | 23864 ft | 434 kts | 232° |
| 2026-04-25 17:27 | 6.09850 | 78.52086 | 23863 ft | 434 kts | 230° |
| 2026-04-25 17:27 | 6.09223 | 78.51298 | 23863 ft | 434 kts | 229° |
| 2026-04-25 17:28 | 6.06033 | 78.47405 | 23864 ft | 434 kts | 229° |
| 2026-04-25 17:28 | 6.04106 | 78.45070 | 23863 ft | 433 kts | 229° |
| 2026-04-25 17:28 | 6.02183 | 78.42723 | 23864 ft | 434 kts | 229° |
| 2026-04-25 17:28 | 6.00287 | 78.40390 | 23863 ft | 433 kts | 229° |
| 2026-04-25 17:29 | 5.98382 | 78.38027 | 23863 ft | 433 kts | 229° |
| 2026-04-25 17:29 | 5.96500 | 78.35683 | 23863 ft | 433 kts | 230° |
| 2026-04-25 17:29 | 5.94602 | 78.33307 | 23864 ft | 433 kts | 230° |
| 2026-04-25 17:29 | 5.92706 | 78.30929 | 23863 ft | 434 kts | 230° |
| 2026-04-25 17:30 | 5.90836 | 78.28577 | 23863 ft | 434 kts | 230° |
| 2026-04-25 17:30 | 5.88947 | 78.26196 | 23863 ft | 434 kts | 230° |
| 2026-04-25 17:30 | 5.87075 | 78.23840 | 23863 ft | 433 kts | 230° |
| 2026-04-25 17:30 | 5.85174 | 78.21446 | 23863 ft | 433 kts | 230° |
| 2026-04-25 17:31 | 5.83305 | 78.19096 | 23863 ft | 434 kts | 230° |
| 2026-04-25 17:31 | 5.81412 | 78.16715 | 23863 ft | 434 kts | 230° |
| 2026-04-25 17:31 | 5.79528 | 78.14346 | 23864 ft | 434 kts | 230° |
| 2026-04-25 17:31 | 5.77659 | 78.11995 | 23863 ft | 434 kts | 230° |
| 2026-04-25 17:32 | 5.75777 | 78.09621 | 23863 ft | 434 kts | 230° |
| 2026-04-25 17:32 | 5.73807 | 78.07137 | 23863 ft | 434 kts | 230° |
| 2026-04-25 17:32 | 5.71818 | 78.04630 | 23864 ft | 434 kts | 230° |
| 2026-04-25 17:32 | 5.69961 | 78.02170 | 23862 ft | 435 kts | 233° |
| 2026-04-25 17:33 | 5.68408 | 77.99599 | 23863 ft | 436 kts | 241° |
| 2026-04-25 17:33 | 5.67175 | 77.96813 | 23864 ft | 437 kts | 247° |
| 2026-04-25 17:33 | 5.66145 | 77.93903 | 23864 ft | 438 kts | 250° |
| 2026-04-25 17:33 | 5.65242 | 77.91004 | 23864 ft | 439 kts | 252° |
| 2026-04-25 17:34 | 5.64353 | 77.87962 | 23863 ft | 439 kts | 252° |
| 2026-04-25 17:34 | 5.63489 | 77.84933 | 23865 ft | 439 kts | 252° |
| 2026-04-25 17:34 | 5.62633 | 77.81935 | 23863 ft | 439 kts | 252° |
| 2026-04-25 17:34 | 5.61762 | 77.78913 | 23864 ft | 439 kts | 252° |
| 2026-04-25 17:35 | 5.60908 | 77.75979 | 23863 ft | 439 kts | 252° |
| 2026-04-25 17:35 | 5.60046 | 77.73048 | 23864 ft | 438 kts | 252° |
| 2026-04-25 17:35 | 5.59170 | 77.70093 | 23863 ft | 439 kts | 252° |
| 2026-04-25 17:35 | 5.58280 | 77.67105 | 23864 ft | 439 kts | 252° |
| 2026-04-25 17:36 | 5.57403 | 77.64172 | 23864 ft | 439 kts | 252° |
| 2026-04-25 17:36 | 5.56514 | 77.61202 | 23864 ft | 439 kts | 252° |
| 2026-04-25 17:36 | 5.55631 | 77.58257 | 23863 ft | 439 kts | 252° |
| 2026-04-25 17:36 | 5.54754 | 77.55336 | 23864 ft | 438 kts | 252° |
| 2026-04-25 17:37 | 5.53876 | 77.52421 | 23864 ft | 439 kts | 252° |
| 2026-04-25 17:37 | 5.52980 | 77.49455 | 23865 ft | 439 kts | 252° |
| 2026-04-25 17:37 | 5.52079 | 77.46478 | 23864 ft | 439 kts | 251° |
| 2026-04-25 17:37 | 5.51196 | 77.43556 | 23864 ft | 439 kts | 252° |
| 2026-04-25 17:38 | 5.50297 | 77.40583 | 23864 ft | 439 kts | 252° |
| 2026-04-25 17:38 | 5.49999 | 77.39597 | 23865 ft | 439 kts | 252° |
| 2026-04-25 17:38 | 5.48523 | 77.34705 | 23864 ft | 438 kts | 252° |
| 2026-04-25 17:38 | 5.47646 | 77.31797 | 23865 ft | 440 kts | 252° |
| 2026-04-25 17:39 | 5.46753 | 77.28833 | 23868 ft | 439 kts | 252° |
| 2026-04-25 17:39 | 5.45860 | 77.25870 | 23872 ft | 439 kts | 252° |
| 2026-04-25 17:39 | 5.44973 | 77.22924 | 23877 ft | 439 kts | 252° |
| 2026-04-25 17:39 | 5.44086 | 77.19983 | 23876 ft | 439 kts | 252° |
| 2026-04-25 17:40 | 5.43199 | 77.17040 | 23880 ft | 439 kts | 252° |
| 2026-04-25 17:40 | 5.42313 | 77.14103 | 23883 ft | 440 kts | 251° |
| 2026-04-25 17:40 | 5.41421 | 77.11146 | 23883 ft | 440 kts | 252° |
| 2026-04-25 17:40 | 5.40498 | 77.08089 | 23883 ft | 439 kts | 251° |
| 2026-04-25 17:41 | 5.39612 | 77.05155 | 23884 ft | 440 kts | 252° |
| 2026-04-25 17:41 | 5.38664 | 77.02016 | 23884 ft | 440 kts | 252° |
| 2026-04-25 17:41 | 5.37770 | 76.99063 | 23883 ft | 439 kts | 251° |
| 2026-04-25 17:41 | 5.36864 | 76.96114 | 23883 ft | 439 kts | 251° |
| 2026-04-25 17:42 | 5.35956 | 76.93190 | 23883 ft | 439 kts | 251° |
| 2026-04-25 17:42 | 5.35051 | 76.90286 | 23879 ft | 439 kts | 251° |
| 2026-04-25 17:42 | 5.34138 | 76.87364 | 23877 ft | 440 kts | 251° |
| 2026-04-25 17:42 | 5.33225 | 76.84439 | 23878 ft | 440 kts | 251° |
| 2026-04-25 17:43 | 5.32308 | 76.81498 | 23875 ft | 439 kts | 251° |
| 2026-04-25 17:43 | 5.31397 | 76.78574 | 23875 ft | 439 kts | 251° |
| 2026-04-25 17:43 | 5.30486 | 76.75645 | 23876 ft | 440 kts | 251° |
| 2026-04-25 17:43 | 5.29582 | 76.72738 | 23873 ft | 438 kts | 251° |
| 2026-04-25 17:44 | 5.28673 | 76.69815 | 23870 ft | 438 kts | 251° |
| 2026-04-25 17:44 | 5.27770 | 76.66909 | 23868 ft | 438 kts | 251° |
| 2026-04-25 17:44 | 5.26861 | 76.63985 | 23863 ft | 439 kts | 251° |
| 2026-04-25 17:44 | 5.25954 | 76.61065 | 23864 ft | 438 kts | 251° |
| 2026-04-25 17:45 | 5.25047 | 76.58146 | 23865 ft | 439 kts | 251° |
| 2026-04-25 17:45 | 5.24743 | 76.57169 | 23865 ft | 439 kts | 251° |
| 2026-04-25 17:45 | 5.23224 | 76.52289 | 23863 ft | 438 kts | 251° |
| 2026-04-25 17:45 | 5.22324 | 76.49398 | 23864 ft | 439 kts | 251° |
| 2026-04-25 17:46 | 5.21413 | 76.46470 | 23863 ft | 438 kts | 251° |
| 2026-04-25 17:46 | 5.20501 | 76.43537 | 23865 ft | 438 kts | 251° |
| 2026-04-25 17:46 | 5.19595 | 76.40627 | 23862 ft | 436 kts | 251° |
| 2026-04-25 17:46 | 5.18695 | 76.37735 | 23863 ft | 436 kts | 251° |
| 2026-04-25 17:47 | 5.17795 | 76.34849 | 23864 ft | 437 kts | 251° |
| 2026-04-25 17:47 | 5.16885 | 76.31931 | 23864 ft | 437 kts | 251° |
| 2026-04-25 17:47 | 5.15975 | 76.29018 | 23864 ft | 436 kts | 251° |
| 2026-04-25 17:47 | 5.15069 | 76.26120 | 23864 ft | 436 kts | 251° |
| 2026-04-25 17:48 | 5.13254 | 76.20306 | 23864 ft | 436 kts | 251° |
| 2026-04-25 17:48 | 5.12357 | 76.17430 | 23864 ft | 436 kts | 251° |
| 2026-04-25 17:48 | 5.11455 | 76.14535 | 23864 ft | 436 kts | 251° |
| 2026-04-25 17:49 | 5.10551 | 76.11631 | 23863 ft | 435 kts | 251° |
| 2026-04-25 17:49 | 5.09652 | 76.08727 | 23863 ft | 435 kts | 251° |
| 2026-04-25 17:49 | 5.08772 | 76.05859 | 23863 ft | 435 kts | 251° |
| 2026-04-25 17:49 | 5.07884 | 76.02962 | 23864 ft | 435 kts | 251° |
| 2026-04-25 17:50 | 5.06989 | 76.00041 | 23864 ft | 435 kts | 251° |
| 2026-04-25 17:50 | 5.06098 | 75.97129 | 23864 ft | 435 kts | 251° |
| 2026-04-25 17:50 | 5.05219 | 75.94260 | 23863 ft | 436 kts | 251° |
| 2026-04-25 17:50 | 5.04325 | 75.91349 | 23864 ft | 436 kts | 251° |
| 2026-04-25 17:51 | 5.03432 | 75.88439 | 23863 ft | 435 kts | 251° |
| 2026-04-25 17:51 | 5.02540 | 75.85535 | 23863 ft | 435 kts | 251° |
| 2026-04-25 17:51 | 5.01660 | 75.82671 | 23861 ft | 436 kts | 251° |
| 2026-04-25 17:51 | 5.00762 | 75.79752 | 23859 ft | 434 kts | 251° |
| 2026-04-25 17:52 | 4.99876 | 75.76869 | 23860 ft | 434 kts | 251° |
| 2026-04-25 17:52 | 4.99585 | 75.75922 | 23860 ft | 435 kts | 251° |
| 2026-04-25 17:52 | 4.98097 | 75.71085 | 23863 ft | 434 kts | 251° |
| 2026-04-25 17:52 | 4.97202 | 75.68176 | 23863 ft | 434 kts | 251° |
| 2026-04-25 17:53 | 4.96318 | 75.65304 | 23864 ft | 435 kts | 251° |
| 2026-04-25 17:53 | 4.95422 | 75.62392 | 23864 ft | 435 kts | 251° |
| 2026-04-25 17:53 | 4.94538 | 75.59522 | 23864 ft | 435 kts | 251° |
| 2026-04-25 17:53 | 4.93638 | 75.56602 | 23864 ft | 436 kts | 251° |
| 2026-04-25 17:54 | 4.92753 | 75.53728 | 23864 ft | 436 kts | 251° |
| 2026-04-25 17:54 | 4.91855 | 75.50812 | 23863 ft | 435 kts | 251° |
| 2026-04-25 17:54 | 4.90961 | 75.47911 | 23866 ft | 435 kts | 251° |
| 2026-04-25 17:54 | 4.90076 | 75.45039 | 23868 ft | 435 kts | 251° |
| 2026-04-25 17:55 | 4.89175 | 75.42117 | 23873 ft | 434 kts | 251° |
| 2026-04-25 17:55 | 4.88296 | 75.39262 | 23878 ft | 433 kts | 251° |
| 2026-04-25 17:55 | 4.87409 | 75.36382 | 23884 ft | 433 kts | 251° |
| 2026-04-25 17:55 | 4.86513 | 75.33477 | 23884 ft | 433 kts | 251° |
| 2026-04-25 17:56 | 4.85619 | 75.30585 | 23885 ft | 434 kts | 251° |
| 2026-04-25 17:56 | 4.84733 | 75.27709 | 23885 ft | 434 kts | 251° |
| 2026-04-25 17:56 | 4.83834 | 75.24800 | 23882 ft | 435 kts | 251° |
| 2026-04-25 17:56 | 4.82944 | 75.21925 | 23885 ft | 435 kts | 251° |
| 2026-04-25 17:57 | 4.82050 | 75.19036 | 23883 ft | 435 kts | 251° |
| 2026-04-25 17:57 | 4.81148 | 75.16125 | 23886 ft | 434 kts | 251° |
| 2026-04-25 17:57 | 4.80251 | 75.13227 | 23884 ft | 434 kts | 251° |
| 2026-04-25 17:57 | 4.79958 | 75.12280 | 23883 ft | 435 kts | 251° |
| 2026-04-25 17:58 | 4.78473 | 75.07481 | 23877 ft | 433 kts | 251° |
| 2026-04-25 17:58 | 4.77585 | 75.04613 | 23877 ft | 433 kts | 251° |
| 2026-04-25 17:58 | 4.76694 | 75.01733 | 23867 ft | 432 kts | 251° |
| 2026-04-25 17:58 | 4.75793 | 74.98821 | 23869 ft | 433 kts | 251° |
| 2026-04-25 17:59 | 4.74912 | 74.95976 | 23868 ft | 433 kts | 251° |
| 2026-04-25 17:59 | 4.74013 | 74.93070 | 23865 ft | 434 kts | 251° |
| 2026-04-25 17:59 | 4.73126 | 74.90207 | 23871 ft | 434 kts | 251° |
| 2026-04-25 17:59 | 4.72227 | 74.87303 | 23873 ft | 434 kts | 251° |
| 2026-04-25 18:00 | 4.71334 | 74.84421 | 23872 ft | 435 kts | 251° |
| 2026-04-25 18:00 | 4.70436 | 74.81523 | 23872 ft | 434 kts | 251° |
| 2026-04-25 18:00 | 4.69543 | 74.78640 | 23873 ft | 435 kts | 251° |
| 2026-04-25 18:00 | 4.68651 | 74.75763 | 23869 ft | 434 kts | 251° |
| 2026-04-25 18:01 | 4.67754 | 74.72869 | 23869 ft | 431 kts | 251° |
| 2026-04-25 18:01 | 4.66883 | 74.70055 | 23868 ft | 414 kts | 251° |
| 2026-04-25 18:01 | 4.66049 | 74.67356 | 23871 ft | 397 kts | 251° |
| 2026-04-25 18:01 | 4.65254 | 74.64784 | 23865 ft | 387 kts | 251° |
| 2026-04-25 18:02 | 4.64446 | 74.62177 | 23609 ft | 393 kts | 251° |
| 2026-04-25 18:02 | 4.63630 | 74.59554 | 23174 ft | 393 kts | 251° |
| 2026-04-25 18:02 | 4.62827 | 74.56971 | 22688 ft | 391 kts | 251° |
| 2026-04-25 18:02 | 4.62019 | 74.54369 | 22185 ft | 389 kts | 252° |
| 2026-04-25 18:03 | 4.61215 | 74.51784 | 21684 ft | 387 kts | 252° |
| 2026-04-25 18:03 | 4.60422 | 74.49229 | 21192 ft | 385 kts | 252° |
| 2026-04-25 18:03 | 4.59630 | 74.46679 | 20719 ft | 382 kts | 252° |
| 2026-04-25 18:03 | 4.58840 | 74.44135 | 20214 ft | 381 kts | 252° |
| 2026-04-25 18:04 | 4.58062 | 74.41627 | 19724 ft | 379 kts | 252° |
| 2026-04-25 18:04 | 4.57286 | 74.39132 | 19229 ft | 377 kts | 253° |
| 2026-04-25 18:04 | 4.56509 | 74.36632 | 18733 ft | 375 kts | 253° |
| 2026-04-25 18:04 | 4.55741 | 74.34156 | 18241 ft | 373 kts | 253° |
| 2026-04-25 18:05 | 4.54969 | 74.31664 | 17748 ft | 371 kts | 253° |
| 2026-04-25 18:05 | 4.54210 | 74.29210 | 17258 ft | 369 kts | 254° |
| 2026-04-25 18:05 | 4.53517 | 74.26774 | 16781 ft | 367 kts | 256° |
| 2026-04-25 18:05 | 4.52919 | 74.24307 | 16297 ft | 365 kts | 258° |
| 2026-04-25 18:06 | 4.52362 | 74.21812 | 15805 ft | 363 kts | 258° |
| 2026-04-25 18:06 | 4.51818 | 74.19351 | 15317 ft | 361 kts | 258° |
| 2026-04-25 18:06 | 4.51275 | 74.16933 | 14837 ft | 359 kts | 258° |
| 2026-04-25 18:06 | 4.50713 | 74.14469 | 14327 ft | 357 kts | 258° |
| 2026-04-25 18:07 | 4.50165 | 74.12103 | 13857 ft | 344 kts | 257° |
| 2026-04-25 18:07 | 4.49624 | 74.09796 | 13437 ft | 337 kts | 257° |
| 2026-04-25 18:07 | 4.49084 | 74.07510 | 12942 ft | 337 kts | 257° |
| 2026-04-25 18:07 | 4.48553 | 74.05256 | 12534 ft | 334 kts | 257° |
| 2026-04-25 18:08 | 4.48018 | 74.02992 | 12105 ft | 332 kts | 257° |
| 2026-04-25 18:08 | 4.47487 | 74.00740 | 11658 ft | 331 kts | 257° |
| 2026-04-25 18:08 | 4.46958 | 73.98504 | 11206 ft | 330 kts | 257° |
| 2026-04-25 18:08 | 4.46432 | 73.96275 | 10756 ft | 329 kts | 257° |
| 2026-04-25 18:09 | 4.45894 | 73.94000 | 10334 ft | 326 kts | 257° |
| 2026-04-25 18:09 | 4.45382 | 73.91832 | 10106 ft | 317 kts | 257° |
| 2026-04-25 18:09 | 4.44887 | 73.89728 | 9908 ft | 300 kts | 257° |
| 2026-04-25 18:09 | 4.44735 | 73.89066 | 9821 ft | 296 kts | 258° |
| 2026-04-25 18:10 | 4.44404 | 73.85719 | 9171 ft | 282 kts | 270° |
| 2026-04-25 18:10 | 4.44422 | 73.83800 | 8824 ft | 273 kts | 271° |
| 2026-04-25 18:10 | 4.44466 | 73.81906 | 8512 ft | 269 kts | 272° |
| 2026-04-25 18:10 | 4.44505 | 73.80063 | 8156 ft | 266 kts | 271° |
| 2026-04-25 18:11 | 4.44522 | 73.78239 | 7833 ft | 254 kts | 270° |
| 2026-04-25 18:11 | 4.44530 | 73.76521 | 7531 ft | 246 kts | 270° |
| 2026-04-25 18:11 | 4.44518 | 73.74813 | 7219 ft | 240 kts | 270° |
| 2026-04-25 18:11 | 4.44507 | 73.73173 | 6925 ft | 234 kts | 271° |
| 2026-04-25 18:12 | 4.44507 | 73.71568 | 6622 ft | 229 kts | 271° |
| 2026-04-25 18:12 | 4.44511 | 73.70008 | 6383 ft | 217 kts | 271° |
| 2026-04-25 18:12 | 4.44503 | 73.68530 | 6137 ft | 207 kts | 271° |
| 2026-04-25 18:12 | 4.44496 | 73.67129 | 5886 ft | 199 kts | 271° |
| 2026-04-25 18:13 | 4.44496 | 73.65756 | 5649 ft | 192 kts | 270° |
| 2026-04-25 18:13 | 4.44493 | 73.64429 | 5429 ft | 190 kts | 271° |
| 2026-04-25 18:13 | 4.44494 | 73.63103 | 5090 ft | 194 kts | 271° |
| 2026-04-25 18:14 | 4.44479 | 73.60403 | 4470 ft | 188 kts | 270° |
| 2026-04-25 18:14 | 4.44473 | 73.59113 | 4245 ft | 178 kts | 271° |
| 2026-04-25 18:14 | 4.44473 | 73.57931 | 4148 ft | 165 kts | 271° |
| 2026-04-25 18:14 | 4.44474 | 73.56800 | 4108 ft | 161 kts | 272° |
| 2026-04-25 18:15 | 4.44474 | 73.55668 | 4063 ft | 160 kts | 272° |
| 2026-04-25 18:15 | 4.44398 | 73.54557 | 4010 ft | 161 kts | 256° |
| 2026-04-25 18:15 | 4.43773 | 73.53635 | 3944 ft | 164 kts | 212° |
| 2026-04-25 18:15 | 4.42699 | 73.53282 | 3759 ft | 163 kts | 186° |
| 2026-04-25 18:16 | 4.41575 | 73.53179 | 3553 ft | 157 kts | 183° |
| 2026-04-25 18:16 | 4.40468 | 73.53113 | 3471 ft | 158 kts | 181° |
| 2026-04-25 18:16 | 4.38265 | 73.53090 | 3341 ft | 159 kts | 179° |
| 2026-04-25 18:17 | 4.37143 | 73.53090 | 3073 ft | 159 kts | 178° |
| 2026-04-25 18:17 | 4.36041 | 73.53095 | 2859 ft | 157 kts | 179° |
| 2026-04-25 18:17 | 4.34946 | 73.53095 | 2668 ft | 159 kts | 179° |
| 2026-04-25 18:17 | 4.33845 | 73.53090 | 2448 ft | 156 kts | 178° |
| 2026-04-25 18:18 | 4.32737 | 73.53095 | 2244 ft | 156 kts | 179° |
| 2026-04-25 18:18 | 4.31660 | 73.53097 | 2046 ft | 156 kts | 179° |
| 2026-04-25 18:18 | 4.30564 | 73.53101 | 1834 ft | 155 kts | 179° |
| 2026-04-25 18:18 | 4.29481 | 73.53099 | 1628 ft | 156 kts | 179° |
| 2026-04-25 18:19 | 4.28400 | 73.53095 | 1431 ft | 154 kts | 179° |
| 2026-04-25 18:19 | 4.27334 | 73.53073 | 1218 ft | 152 kts | 183° |
| 2026-04-25 18:19 | 4.26283 | 73.52975 | 1024 ft | 148 kts | 186° |
| 2026-04-25 18:19 | 4.25243 | 73.52879 | 930 ft | 149 kts | 184° |
| 2026-04-25 18:20 | 4.24207 | 73.52810 | 776 ft | 150 kts | 180° |
| 2026-04-25 18:20 | 4.23155 | 73.52826 | 508 ft | 146 kts | 178° |
| 2026-04-25 18:20 | 4.22159 | 73.52855 | 395 ft | 144 kts | 180° |
| 2026-04-25 18:20 | 4.21122 | 73.52866 | 107 ft | 147 kts | 177° |
| 2026-04-25 18:21 | 4.20139 | 73.52896 | 9 ft | 140 kts | 179° |
| 2026-04-25 18:21 | 4.19425 | 73.52911 | 9 ft | 63 kts | 179° |
| 2026-04-25 18:21 | 4.19105 | 73.52921 | 9 ft | 21 kts | 179° |
| 2026-04-25 18:21 | 4.19038 | 73.52871 | 9 ft | 10 kts | 259° |
| 2026-04-25 18:22 | 4.19000 | 73.52834 | 9 ft | 8 kts | 180° |
| 2026-04-25 18:22 | 4.18981 | 73.52834 | 9 ft | 8 kts | 178° |
| 2026-04-25 18:22 | 4.18687 | 73.52838 | 9 ft | 32 kts | 181° |
| 2026-04-25 18:22 | 4.18598 | 73.52830 | 9 ft | 0 kts | 237° |
| 2026-04-25 18:23 | 4.18598 | 73.52826 | 9 ft | 1 kts | 280° |
| 2026-04-25 18:23 | 4.18599 | 73.52805 | 9 ft | 0 kts | 259° |